Aliq, Pennsylvania
Current Conditions -  °F | °C
As of 12:51 AM on Saturday 01 Nov 2014 (Local Time) from KPIT Reporting Station
Drizzle Drizzle  
Wind Chill: 36°   Ceiling: 2000
Heat Index: 41°   Visibility: 7mi
Dew Point: 40°   Wind: 8mph
Humidity: 96%   Direction: 10°N
Pressure: 29.88"   Gusts: NA
Location:  40.5921°N, 80.3191°W
Report Text: KPIT 010451Z 01007KT 7SM -DZ SCT008 BKN020 OVC026 05/04 A2988 RMK AO2 SLP131 SCT V BKN P0000 T00500044 400780050
Loading
Personal Weather Stations






























Interactive Weather Map
Tropical Storm Tracking
New forecast layout! Learn more

10-Day Weather Forecast

Advertisements
Track Severe Weather on mobile